Archival Weather

Norman Y Mineta San Jose Intl

San Jose, California (KSJC)

Report from: Wednesday, January 31, 2024 9:53 PM PST
Current time: Monday, June 24, 2024 2:04 AM PDT

Current weather – Weather history – Daily summaries
Weather forecast

Present weatherRain
Temperature13.3°C (55.9°F)
Dew point10.6°C (51.1°F)
Winds 6 kts (3.1 m/s, 6.9 mph) East-Southeast (120°)
Visibility3 mi. (4.8 km)
Clouds Ceiling: Overcast 4,700 ft. (1,433 m)
Altimeter29.63 in.Hg (1003 mB)
Precipitiation0.24 in. (6 mm)
Precip last 3 hours0.49 in. (12 mm)
Relative humidity84 %
Density altitude317 ft. (97 m)
Sea-level pressure100.3 kPa (1003 mB, 29.63 in.Hg)
Max temp last 6 hours15.0°C (59.0°F)
Min temp last 6 hours12.8°C (55.0°F)
Remarks Automated weather observing station with precipitation discriminator
Pressure rising, then falling
Flight conditions Marginal Visual Meteorological Conditions
Raw dataKSJC 010553Z 12006KT 3SM RA OVC047 13/11 A2963 RMK AO2 WSHFT 0457 SLP033 P0024 60049 T01330106 10150 20128 50017
An error has occurred. This application may no longer respond until reloaded. Reload 🗙